createdAt,value
2018-02-09T00:01:21.259Z,93.60
2018-02-09T00:03:47.579Z,81.67
2018-02-09T00:06:13.847Z,86.93
2018-02-09T00:08:40.111Z,79.07
2018-02-09T00:11:06.397Z,82.07
2018-02-09T00:13:32.673Z,83.77
2018-02-09T00:15:58.949Z,81.87
2018-02-09T00:18:25.231Z,77.17
2018-02-09T00:20:51.511Z,92.90
2018-02-09T00:23:17.835Z,82.33
2018-02-09T00:25:44.192Z,78.50
2018-02-09T00:28:10.557Z,86.70
2018-02-09T00:30:36.843Z,85.43
2018-02-09T00:33:03.160Z,77.17
2018-02-09T00:35:29.505Z,75.57
2018-02-09T00:37:56.752Z,80.43
2018-02-09T00:40:23.062Z,79.27
2018-02-09T00:42:49.324Z,72.20
2018-02-09T00:45:15.641Z,79.77
2018-02-09T00:47:41.976Z,79.97
2018-02-09T00:50:08.262Z,78.90
2018-02-09T00:52:34.526Z,68.23
2018-02-09T00:55:00.885Z,71.23
2018-02-09T00:57:27.174Z,75.70
2018-02-09T00:59:53.456Z,74.13
2018-02-09T01:02:20.480Z,70.53
2018-02-09T01:04:46.810Z,79.93
2018-02-09T01:07:20.044Z,66.40
2018-02-09T01:09:46.315Z,74.93
2018-02-09T01:12:12.618Z,78.67
2018-02-09T01:14:38.914Z,97.00
2018-02-09T01:17:05.215Z,82.40
2018-02-09T01:19:31.508Z,90.30
2018-02-09T01:21:57.794Z,77.50
2018-02-09T01:24:24.074Z,84.10
2018-02-09T01:26:50.370Z,87.40
2018-02-09T01:29:16.652Z,80.20
2018-02-09T01:31:43.026Z,77.53
2018-02-09T01:34:10.072Z,73.00
2018-02-09T01:36:36.409Z,78.27
2018-02-09T01:39:03.443Z,77.00
2018-02-09T01:41:29.748Z,73.33
2018-02-09T01:43:56.006Z,67.07
2018-02-09T01:46:22.315Z,70.93
2018-02-09T01:48:48.591Z,73.30
2018-02-09T01:51:15.602Z,74.27
2018-02-09T01:53:41.893Z,67.07
2018-02-09T01:56:08.147Z,72.90
2018-02-09T01:58:34.569Z,79.60
2018-02-09T02:01:00.828Z,89.13
2018-02-09T02:03:27.117Z,74.07
2018-02-09T02:05:53.517Z,65.67
2018-02-09T02:08:20.535Z,71.70
2018-02-09T02:10:46.876Z,69.40
2018-02-09T02:13:13.172Z,75.53
2018-02-09T02:15:39.438Z,76.73
2018-02-09T02:18:05.728Z,81.30
2018-02-09T02:20:32.026Z,80.50
2018-02-09T02:22:58.306Z,72.30
2018-02-09T02:25:24.605Z,83.00
2018-02-09T02:27:50.908Z,77.47
2018-02-09T02:30:17.984Z,80.10
2018-02-09T02:32:44.256Z,76.53
2018-02-09T02:35:10.575Z,77.37
2018-02-09T02:37:36.856Z,79.67
2018-02-09T02:40:03.160Z,67.43
2018-02-09T02:42:29.435Z,69.73
2018-02-09T02:44:55.691Z,77.97
2018-02-09T02:47:22.093Z,79.33
2018-02-09T02:49:48.364Z,75.10
2018-02-09T02:52:14.644Z,71.43
2018-02-09T02:54:40.915Z,76.53
2018-02-09T02:57:07.234Z,73.43
2018-02-09T02:59:33.543Z,73.20
2018-02-09T03:01:59.841Z,73.43
2018-02-09T03:04:26.105Z,76.37
2018-02-09T03:06:52.389Z,72.80
2018-02-09T03:09:18.643Z,78.40
2018-02-09T03:11:45.709Z,68.70
2018-02-09T03:14:12.002Z,86.93
2018-02-09T03:16:38.315Z,71.37
2018-02-09T03:19:04.600Z,76.17
2018-02-09T03:21:30.892Z,73.70
2018-02-09T03:23:57.177Z,67.33
2018-02-09T03:26:23.462Z,77.00
2018-02-09T03:28:49.726Z,72.80
2018-02-09T03:31:16.005Z,73.20
2018-02-09T03:33:42.269Z,76.33
2018-02-09T03:36:08.565Z,78.40
2018-02-09T03:38:34.830Z,74.80
2018-02-09T03:41:01.100Z,71.47
2018-02-09T03:43:27.401Z,75.53
2018-02-09T03:45:53.730Z,78.00
2018-02-09T03:48:20.034Z,73.87
2018-02-09T03:50:47.059Z,76.30
2018-02-09T03:53:13.339Z,67.47
2018-02-09T03:58:12.668Z,70.93
2018-02-09T04:00:38.926Z,73.83
2018-02-09T04:03:05.265Z,79.00
2018-02-09T04:05:31.532Z,76.63
2018-02-09T04:07:58.538Z,78.80
2018-02-09T04:10:24.866Z,76.17
2018-02-09T04:12:51.118Z,71.67
2018-02-09T04:15:17.376Z,74.13
2018-02-09T04:17:43.654Z,82.87
2018-02-09T04:20:09.900Z,73.30
2018-02-09T04:22:36.177Z,83.13
2018-02-09T04:25:02.472Z,75.33
2018-02-09T04:27:28.735Z,76.13
2018-02-09T04:29:55.051Z,79.03
2018-02-09T04:32:21.357Z,82.00
2018-02-09T04:34:47.729Z,77.77
2018-02-09T04:37:14.003Z,74.40
2018-02-09T04:39:40.359Z,79.73
2018-02-09T04:42:06.801Z,70.30
2018-02-09T04:44:33.937Z,76.43
2018-02-09T04:47:00.265Z,80.73
2018-02-09T04:49:26.567Z,69.23
2018-02-09T04:51:52.895Z,70.57
2018-02-09T04:54:19.161Z,75.47
2018-02-09T04:56:45.537Z,78.90
2018-02-09T04:59:11.812Z,70.37
2018-02-09T05:01:38.120Z,71.67
2018-02-09T05:04:04.408Z,82.10
2018-02-09T05:06:31.388Z,72.77
2018-02-09T05:08:57.654Z,72.90
2018-02-09T05:11:23.932Z,79.60
2018-02-09T05:13:50.263Z,76.57
2018-02-09T05:16:16.530Z,73.97
2018-02-09T05:18:43.126Z,74.37
2018-02-09T05:21:09.392Z,74.33
2018-02-09T05:23:35.694Z,85.13
2018-02-09T05:26:01.974Z,73.03
2018-02-09T05:28:28.252Z,74.37
2018-02-09T05:30:54.491Z,70.03
2018-02-09T05:33:20.803Z,86.80
2018-02-09T05:35:47.054Z,72.40
2018-02-09T05:38:13.361Z,71.77
2018-02-09T05:40:39.758Z,74.23
2018-02-09T05:43:06.026Z,80.57
2018-02-09T05:45:32.287Z,73.20
2018-02-09T05:47:58.646Z,82.30
2018-02-09T05:50:24.947Z,75.23
2018-02-09T05:52:51.239Z,73.20
2018-02-09T05:55:17.535Z,72.70
2018-02-09T05:57:43.818Z,80.03
2018-02-09T06:00:10.143Z,70.23
2018-02-09T06:02:36.443Z,79.13
2018-02-09T06:05:03.446Z,80.57
2018-02-09T06:07:29.797Z,76.13
2018-02-09T06:09:56.160Z,76.27
2018-02-09T06:12:23.206Z,73.83
2018-02-09T06:14:50.214Z,81.10
2018-02-09T06:17:16.520Z,76.27
2018-02-09T06:19:42.800Z,77.20
2018-02-09T06:22:09.074Z,73.77
2018-02-09T06:24:35.490Z,83.33
2018-02-09T06:27:01.848Z,77.93
2018-02-09T06:29:28.227Z,74.43
2018-02-09T06:31:55.280Z,90.30
2018-02-09T06:34:22.305Z,78.30
2018-02-09T06:36:48.573Z,93.63
2018-02-09T06:39:15.574Z,80.33
2018-02-09T06:41:41.855Z,75.70
2018-02-09T06:44:08.939Z,76.47
2018-02-09T06:46:35.212Z,74.97
2018-02-09T06:49:02.383Z,78.50
2018-02-09T06:51:28.909Z,78.33
2018-02-09T06:53:55.923Z,82.93
2018-02-09T06:56:22.492Z,84.77
2018-02-09T06:58:48.782Z,84.67
2018-02-09T07:01:15.021Z,80.13
2018-02-09T07:03:41.338Z,78.73
2018-02-09T07:06:07.664Z,83.17
2018-02-09T07:08:34.020Z,79.40
2018-02-09T07:11:01.098Z,75.97
2018-02-09T07:13:28.176Z,82.60
2018-02-09T07:15:54.422Z,84.47
2018-02-09T07:18:20.700Z,84.47
2018-02-09T07:20:47.764Z,83.60
2018-02-09T07:23:13.995Z,74.70
2018-02-09T07:25:40.265Z,66.67
2018-02-09T07:28:06.516Z,76.13
2018-02-09T07:30:32.823Z,80.03
2018-02-09T07:32:59.077Z,75.07
2018-02-09T07:35:25.331Z,76.40
2018-02-09T07:37:52.382Z,83.63
2018-02-09T07:40:19.375Z,84.10
2018-02-09T07:42:45.655Z,76.93
2018-02-09T07:45:11.958Z,73.87
2018-02-09T07:47:38.187Z,77.30
2018-02-09T07:50:04.537Z,76.33
2018-02-09T07:52:31.533Z,88.27
2018-02-09T07:54:57.812Z,72.50
2018-02-09T07:57:24.824Z,74.10
2018-02-09T07:59:51.112Z,84.23
2018-02-09T08:02:17.363Z,86.97
2018-02-09T08:04:43.729Z,79.90
2018-02-09T08:07:10.024Z,78.87
2018-02-09T08:09:36.290Z,70.40
2018-02-09T08:12:02.608Z,74.27
2018-02-09T08:14:28.864Z,82.50
2018-02-09T08:16:55.154Z,81.23
2018-02-09T08:19:21.472Z,77.60
2018-02-09T08:21:47.780Z,80.70
2018-02-09T08:24:14.904Z,71.03
2018-02-09T08:26:41.189Z,80.27
2018-02-09T08:29:07.527Z,71.40
2018-02-09T08:31:33.775Z,76.70
2018-02-09T08:34:00.049Z,85.13
2018-02-09T08:36:27.062Z,79.73
2018-02-09T08:38:53.314Z,78.70
2018-02-09T08:41:20.343Z,72.47
2018-02-09T08:43:46.611Z,84.03
2018-02-09T08:46:12.924Z,78.77
2018-02-09T08:48:39.217Z,77.00
2018-02-09T08:51:05.520Z,77.87
2018-02-09T08:53:31.788Z,82.20
2018-02-09T08:55:58.026Z,81.00
2018-02-09T08:58:24.306Z,87.43
2018-02-09T09:00:50.584Z,78.27
2018-02-09T09:03:16.864Z,80.77
2018-02-09T09:05:43.117Z,86.80
2018-02-09T09:08:09.364Z,86.83
2018-02-09T09:10:35.672Z,86.97
2018-02-09T09:13:01.927Z,80.93
2018-02-09T09:15:28.214Z,80.90
2018-02-09T09:17:54.456Z,81.37
2018-02-09T09:20:20.708Z,79.83
2018-02-09T09:22:46.980Z,81.57
2018-02-09T09:25:13.986Z,78.30
2018-02-09T09:27:40.326Z,78.23
2018-02-09T09:30:06.643Z,81.43
2018-02-09T09:32:32.896Z,92.37
2018-02-09T09:34:59.907Z,77.73
2018-02-09T09:37:26.151Z,79.93
2018-02-09T09:39:52.481Z,76.27
2018-02-09T09:42:18.779Z,78.47
2018-02-09T09:44:45.070Z,74.90
2018-02-09T09:47:12.110Z,75.10
2018-02-09T09:49:38.399Z,71.53
2018-02-09T09:52:04.638Z,75.83
2018-02-09T09:54:30.870Z,67.47
2018-02-09T09:56:57.178Z,74.90
2018-02-09T09:59:23.395Z,68.90
2018-02-09T10:01:49.642Z,67.57
2018-02-09T10:04:15.938Z,70.63
2018-02-09T10:06:42.972Z,71.10
2018-02-09T10:09:09.272Z,74.57
2018-02-09T10:11:35.580Z,69.63
2018-02-09T10:14:01.877Z,68.53
2018-02-09T10:16:28.980Z,79.23
2018-02-09T10:18:55.238Z,68.87
2018-02-09T10:21:21.493Z,68.83
2018-02-09T10:23:47.820Z,72.60
2018-02-09T10:26:14.857Z,64.17
2018-02-09T10:28:41.879Z,58.40
2018-02-09T10:31:08.115Z,62.03
2018-02-09T10:33:34.449Z,65.33
2018-02-09T10:36:00.689Z,68.70
2018-02-09T10:38:27.716Z,60.73
2018-02-09T10:40:54.000Z,54.70
2018-02-09T10:43:20.298Z,62.13
2018-02-09T10:45:46.550Z,57.77
2018-02-09T10:48:12.808Z,68.03
2018-02-09T10:50:39.070Z,60.20
2018-02-09T10:53:05.388Z,66.77
2018-02-09T10:55:32.424Z,60.70
2018-02-09T10:57:58.696Z,65.50
2018-02-09T11:00:32.027Z,63.30
2018-02-09T11:02:58.273Z,61.93
2018-02-09T11:05:24.552Z,64.00
2018-02-09T11:07:51.537Z,62.57
2018-02-09T11:10:23.931Z,70.10
2018-02-09T11:12:50.214Z,61.60
2018-02-09T11:15:17.269Z,67.73
2018-02-09T11:17:43.544Z,61.27
2018-02-09T11:20:09.787Z,62.10
2018-02-09T11:22:36.054Z,60.30
2018-02-09T11:25:02.336Z,62.03
2018-02-09T11:27:28.651Z,61.90
2018-02-09T11:29:54.907Z,63.37
2018-02-09T11:32:21.204Z,68.00
2018-02-09T11:34:47.460Z,64.53
2018-02-09T11:37:13.763Z,68.93
2018-02-09T11:39:40.099Z,61.73
2018-02-09T11:42:06.377Z,67.80
2018-02-09T11:44:32.677Z,67.97
2018-02-09T11:46:58.926Z,65.13
2018-02-09T11:49:25.186Z,66.07
2018-02-09T11:51:51.467Z,69.10
2018-02-09T11:54:17.711Z,60.40
2018-02-09T11:56:43.964Z,68.63
2018-02-09T11:59:11.022Z,65.17
2018-02-09T12:01:38.020Z,62.10
2018-02-09T12:04:04.280Z,63.50
2018-02-09T12:06:30.555Z,66.77
2018-02-09T12:08:56.860Z,68.83
2018-02-09T12:11:23.900Z,62.97
2018-02-09T12:13:50.954Z,61.80
2018-02-09T12:16:17.960Z,66.87
2018-02-09T12:18:44.274Z,62.77
2018-02-09T12:21:10.520Z,63.67
2018-02-09T12:23:36.816Z,73.10
2018-02-09T12:26:03.153Z,75.50
2018-02-09T12:28:29.423Z,63.30
2018-02-09T12:30:55.679Z,69.27
2018-02-09T12:33:21.959Z,70.83
2018-02-09T12:35:48.246Z,61.60
2018-02-09T12:38:15.236Z,67.63
2018-02-09T12:40:41.480Z,70.00
2018-02-09T12:43:07.747Z,67.77
2018-02-09T12:45:34.047Z,73.43
2018-02-09T12:48:00.340Z,73.50
2018-02-09T12:50:26.604Z,69.23
2018-02-09T12:52:52.832Z,66.57
2018-02-09T12:55:19.136Z,68.13
2018-02-09T12:57:45.470Z,65.90
2018-02-09T13:00:11.712Z,64.80
2018-02-09T13:02:38.080Z,63.33
2018-02-09T13:05:05.180Z,64.23
2018-02-09T13:07:31.420Z,70.70
2018-02-09T13:09:57.716Z,66.53
2018-02-09T13:12:42.631Z,70.27
2018-02-09T13:15:08.943Z,66.03
2018-02-09T13:17:35.245Z,69.90
2018-02-09T13:20:01.577Z,70.07
2018-02-09T13:25:38.064Z,65.57
2018-02-09T13:28:04.356Z,69.60
2018-02-09T13:30:30.632Z,63.90
2018-02-09T13:33:15.804Z,67.97
2018-02-09T13:35:42.109Z,66.83
2018-02-09T13:38:09.146Z,67.50
2018-02-09T13:40:36.157Z,71.87
2018-02-09T13:43:02.497Z,71.50
2018-02-09T13:45:28.795Z,65.10
2018-02-09T13:47:55.143Z,69.30
2018-02-09T13:50:21.455Z,70.43
2018-02-09T13:52:47.761Z,68.00
2018-02-09T13:55:14.856Z,64.53
2018-02-09T13:57:42.945Z,69.00
2018-02-09T14:00:10.194Z,77.60
2018-02-09T14:02:37.296Z,71.87
2018-02-09T14:05:03.549Z,68.83
2018-02-09T14:07:29.869Z,65.73
2018-02-09T14:09:56.191Z,70.17
2018-02-09T14:12:22.531Z,65.53
2018-02-09T14:14:48.830Z,62.60
2018-02-09T14:19:49.654Z,69.90
2018-02-09T14:22:15.952Z,72.10
2018-02-09T14:24:42.264Z,72.40
2018-02-09T14:27:08.547Z,72.73
2018-02-09T14:29:34.828Z,71.03
2018-02-09T14:32:01.868Z,78.60
2018-02-09T14:34:28.178Z,77.77
2018-02-09T14:36:55.268Z,74.97
2018-02-09T14:39:21.565Z,69.97
2018-02-09T14:41:48.607Z,75.47
2018-02-09T14:44:15.635Z,70.63
2018-02-09T14:46:41.984Z,71.07
2018-02-09T14:49:09.055Z,62.20
2018-02-09T14:51:35.313Z,70.60
2018-02-09T14:54:01.615Z,78.83
2018-02-09T14:56:27.872Z,80.63
2018-02-09T14:58:54.144Z,73.70
2018-02-09T15:01:20.474Z,72.17
2018-02-09T15:03:46.771Z,83.60
2018-02-09T15:06:13.008Z,83.33
2018-02-09T15:08:39.333Z,74.80
2018-02-09T15:11:05.608Z,74.73
2018-02-09T15:13:32.654Z,92.77
2018-02-09T15:15:59.702Z,76.80
2018-02-09T15:18:26.756Z,76.03
2018-02-09T15:20:53.833Z,103.13
2018-02-09T15:23:20.233Z,91.20
2018-02-09T15:25:47.256Z,81.53
2018-02-09T15:28:13.558Z,90.30
2018-02-09T15:30:39.849Z,85.47
2018-02-09T15:33:06.893Z,75.07
2018-02-09T15:35:33.851Z,88.20
2018-02-09T15:38:00.151Z,84.90
2018-02-09T15:40:26.397Z,85.23
2018-02-09T15:42:53.420Z,86.37
2018-02-09T15:45:19.688Z,91.03
2018-02-09T15:47:46.042Z,87.13
2018-02-09T15:50:12.395Z,94.63
2018-02-09T15:52:38.684Z,87.40
2018-02-09T15:55:04.956Z,85.37
2018-02-09T15:57:32.116Z,83.27
2018-02-09T15:59:58.384Z,92.77
2018-02-09T16:02:24.690Z,90.80
2018-02-09T16:04:51.061Z,83.57
2018-02-09T16:07:17.354Z,89.13
2018-02-09T16:09:43.658Z,91.23
2018-02-09T16:12:09.970Z,92.40
2018-02-09T16:14:36.276Z,90.70
2018-02-09T16:17:02.633Z,95.80
2018-02-09T16:19:28.912Z,97.97
2018-02-09T16:21:55.213Z,94.47
2018-02-09T16:24:21.529Z,87.77
2018-02-09T16:26:47.843Z,94.20
2018-02-09T16:29:14.113Z,91.30
2018-02-09T16:31:40.385Z,103.13
2018-02-09T16:34:06.722Z,96.93
2018-02-09T16:36:32.995Z,89.80
2018-02-09T16:38:59.275Z,100.30
2018-02-09T16:41:26.427Z,87.10
2018-02-09T16:43:53.515Z,99.63
2018-02-09T16:46:19.767Z,89.10
2018-02-09T16:48:46.519Z,97.87
2018-02-09T16:51:12.903Z,87.27
2018-02-09T16:53:39.186Z,101.60
2018-02-09T16:56:05.603Z,101.47
2018-02-09T16:58:32.005Z,100.87
2018-02-09T17:00:58.325Z,100.23
2018-02-09T17:03:24.676Z,97.70
2018-02-09T17:05:51.028Z,99.17
2018-02-09T17:08:17.564Z,98.67
2018-02-09T17:10:43.930Z,101.07
2018-02-09T17:13:11.063Z,105.50
2018-02-09T17:15:37.368Z,93.97
2018-02-09T17:18:03.642Z,95.10
2018-02-09T17:20:30.699Z,96.40
2018-02-09T17:22:56.974Z,121.60
2018-02-09T17:25:23.269Z,103.47
2018-02-09T17:27:49.623Z,109.20
2018-02-09T17:30:15.933Z,98.70
2018-02-09T17:32:42.221Z,94.90
2018-02-09T17:35:08.552Z,93.73
2018-02-09T17:37:34.845Z,104.83
2018-02-09T17:40:01.158Z,95.57
2018-02-09T17:42:27.552Z,105.03
2018-02-09T17:44:53.845Z,108.43
2018-02-09T17:47:20.146Z,100.33
2018-02-09T17:49:47.252Z,95.33
2018-02-09T17:52:13.560Z,108.73
2018-02-09T17:54:39.846Z,103.03
2018-02-09T17:57:06.896Z,93.00
2018-02-09T17:59:33.936Z,93.33
2018-02-09T18:02:00.956Z,95.33
2018-02-09T18:04:27.340Z,100.10
2018-02-09T18:06:53.822Z,91.43
2018-02-09T18:09:20.093Z,101.27
2018-02-09T18:11:46.409Z,131.00
2018-02-09T18:14:13.457Z,147.77
2018-02-09T18:16:40.559Z,113.30
2018-02-09T18:19:06.895Z,106.60
2018-02-09T18:21:33.180Z,112.37
2018-02-09T18:23:59.493Z,108.67
2018-02-09T18:26:26.519Z,104.97
2018-02-09T18:28:52.794Z,109.80
2018-02-09T18:31:19.184Z,99.50
2018-02-09T18:33:45.573Z,94.33
2018-02-09T18:36:11.851Z,117.67
2018-02-09T18:38:38.180Z,113.63
2018-02-09T18:41:04.520Z,105.83
2018-02-09T18:43:30.778Z,127.23
2018-02-09T18:45:57.108Z,113.60
2018-02-09T18:48:23.422Z,108.43
2018-02-09T18:50:50.455Z,106.83
2018-02-09T18:53:16.704Z,115.23
2018-02-09T18:55:43.729Z,111.23
2018-02-09T18:58:10.028Z,104.70
2018-02-09T19:00:36.315Z,109.43
2018-02-09T19:03:03.363Z,96.07
2018-02-09T19:05:30.400Z,102.57
2018-02-09T19:08:00.094Z,106.13
2018-02-09T19:10:27.313Z,100.87
2018-02-09T19:12:53.888Z,102.57
2018-02-09T19:15:20.218Z,96.13
2018-02-09T19:17:46.488Z,116.40
2018-02-09T19:20:12.835Z,106.67
2018-02-09T19:22:39.136Z,98.90
2018-02-09T19:25:06.172Z,94.80
2018-02-09T19:27:33.209Z,96.27
2018-02-09T19:29:59.522Z,98.83
2018-02-09T19:32:25.827Z,108.23
2018-02-09T19:34:52.137Z,103.23
2018-02-09T19:37:18.522Z,101.47
2018-02-09T19:39:44.823Z,116.20
2018-02-09T19:42:11.144Z,100.40
2018-02-09T19:44:37.513Z,94.33
2018-02-09T19:47:03.953Z,104.20
2018-02-09T19:49:31.053Z,104.87
2018-02-09T19:51:57.379Z,116.60
2018-02-09T19:54:23.681Z,113.87
2018-02-09T19:56:50.761Z,113.83
2018-02-09T19:59:17.056Z,104.87
2018-02-09T20:01:44.116Z,113.40
2018-02-09T20:04:11.396Z,125.23
2018-02-09T20:06:37.684Z,106.63
2018-02-09T20:09:05.182Z,113.93
2018-02-09T20:11:32.485Z,121.27
2018-02-09T20:13:58.836Z,121.33
2018-02-09T20:16:25.877Z,112.67
2018-02-09T20:18:52.211Z,112.47
2018-02-09T20:21:18.577Z,108.23
2018-02-09T20:23:44.911Z,117.80
2018-02-09T20:26:11.184Z,107.70
2018-02-09T20:28:37.437Z,109.00
2018-02-09T20:31:04.491Z,103.87
2018-02-09T20:33:31.524Z,104.53
2018-02-09T20:35:57.928Z,125.63
2018-02-09T20:38:24.200Z,101.00
2018-02-09T20:40:51.228Z,103.87
2018-02-09T20:43:17.526Z,109.47
2018-02-09T20:45:43.845Z,114.43
2018-02-09T20:48:10.412Z,108.70
2018-02-09T20:50:36.710Z,101.67
2018-02-09T20:53:03.051Z,105.07
2018-02-09T20:55:29.350Z,100.27
2018-02-09T20:57:55.692Z,99.03
2018-02-09T21:00:21.980Z,108.40
2018-02-09T21:02:48.318Z,109.57
2018-02-09T21:05:14.646Z,102.67
2018-02-09T21:07:41.066Z,92.83
2018-02-09T21:10:07.813Z,103.63
2018-02-09T21:12:34.152Z,95.30
2018-02-09T21:15:01.321Z,93.13
2018-02-09T21:17:28.349Z,104.23
2018-02-09T21:19:54.772Z,101.90
2018-02-09T21:22:21.120Z,109.07
2018-02-09T21:24:47.415Z,376.67
2018-02-09T21:27:13.768Z,213.03
2018-02-09T21:29:40.037Z,103.00
2018-02-09T21:32:06.346Z,102.83
2018-02-09T21:34:33.416Z,117.10
2018-02-09T21:36:59.701Z,102.73
2018-02-09T21:39:26.085Z,100.37
2018-02-09T21:41:52.386Z,107.60
2018-02-09T21:44:19.422Z,108.20
2018-02-09T21:46:45.748Z,102.60
2018-02-09T21:49:12.082Z,106.17
2018-02-09T21:51:38.404Z,111.03
2018-02-09T21:54:04.716Z,104.80
2018-02-09T21:56:30.960Z,100.73
2018-02-09T21:58:57.232Z,101.87
2018-02-09T22:01:24.355Z,90.57
2018-02-09T22:03:50.753Z,97.67
2018-02-09T22:06:17.052Z,114.73
2018-02-09T22:08:43.347Z,123.87
2018-02-09T22:11:09.691Z,103.97
2018-02-09T22:13:36.725Z,104.93
2018-02-09T22:16:03.023Z,111.57
2018-02-09T22:18:29.312Z,113.00
2018-02-09T22:20:55.579Z,113.17
2018-02-09T22:23:21.841Z,112.60
2018-02-09T22:25:48.241Z,125.53
2018-02-09T22:28:14.513Z,101.47
2018-02-09T22:30:40.801Z,114.63
2018-02-09T22:33:07.093Z,113.37
2018-02-09T22:35:34.191Z,121.63
2018-02-09T22:38:00.439Z,105.83
2018-02-09T22:40:26.705Z,108.13
2018-02-09T22:42:53.705Z,118.57
2018-02-09T22:45:19.982Z,109.57
2018-02-09T22:47:47.040Z,118.80
2018-02-09T22:50:14.030Z,127.60
2018-02-09T22:52:40.318Z,120.83
2018-02-09T22:55:06.589Z,120.97
2018-02-09T22:57:32.894Z,119.20
2018-02-09T22:59:59.180Z,113.43
2018-02-09T23:02:25.411Z,115.20
2018-02-09T23:04:51.681Z,115.10
2018-02-09T23:07:18.845Z,116.80
2018-02-09T23:09:45.101Z,132.47
2018-02-09T23:12:11.389Z,112.17
2018-02-09T23:14:37.683Z,107.37
2018-02-09T23:17:04.736Z,106.10
2018-02-09T23:19:31.801Z,118.60
2018-02-09T23:21:58.063Z,117.33
2018-02-09T23:24:24.365Z,102.80
2018-02-09T23:26:50.672Z,113.60
2018-02-09T23:29:17.699Z,115.07
2018-02-09T23:31:43.947Z,112.43
2018-02-09T23:34:10.230Z,109.07
2018-02-09T23:36:36.484Z,110.90
2018-02-09T23:39:02.892Z,105.37
2018-02-09T23:41:29.200Z,107.07
2018-02-09T23:43:55.472Z,95.23
2018-02-09T23:46:21.793Z,103.60
2018-02-09T23:48:48.068Z,97.40
2018-02-09T23:51:15.060Z,103.47
2018-02-09T23:53:41.313Z,102.43
2018-02-09T23:56:07.574Z,99.93
2018-02-09T23:58:34.607Z,103.67
